Terminal Aerodrome Forecast
Issued by NWS Twin Cities, MN

Home | Current Version | Previous Version | Text Only | Print | Product List | Glossary Off
Versions: 1 2 3 4 5 6 7 8 9 10 11 12 13

000
FTUS43 KMPX 271120
TAFEAU
TAF
KEAU 271120Z 2712/2812 10003KT P6SM OVC100
     FM271500 10007KT P6SM BKN040 OVC070
     FM272000 14005KT P6SM SCT040 BKN100
     FM280800 00000KT 1/2SM FG VV002=

USA.gov is the U.S. government's official web portal to all federal, state and local government web resources and services.